Weather at Charles de Gaulle International Airport

Public forecast

Using degrees Celsius for public forecast. Weather courtesy of forecast.io.

Current aviation weather report (METAR) for Charles de Gaulle International Airport

Retrieved 2021/05/06 06:30 UTC (5 minutes ago):

LFPG 060630Z 17007KT 9999 -RA FEW033 BKN041 07/04 Q1008 NOSIG

Aviation forecast (TAF) for Charles de Gaulle International Airport

Retrieved 2021/05/06 06:21 UTC (14 minutes ago):

TAF LFPG 060500Z 0606/0712 17005KT 9999 BKN040 TX14/0712Z TN03/0704Z PROB30 TEMPO 0607/0615 BKN013 BKN020 PROB40 TEMPO 0607/0612 4000 RA PROB40 TEMPO 0613/0618 4000 SHRA SCT020TCU PROB30 TEMPO 0614/0617 -TSRA BKN020CB TEMPO 0702/0707 4000 BR PROB30 TEMPO 0706/0707 0800 BCFG BECMG 0707/0709 28010KT